• Join FlightAware (Why Join?)
  • Login
  • US Flag 
09:18PM EDT


 

Airport Tracker/Info


-or-


 

Live Flight TrackerFlight Track Log ✈ FIN666 ✈ 10-Nov-2013 ✈ EKCH / CPH - EFHK / HEL

Flight Track Log - Related Links

Times and Time Zones

All times are in EST time to prevent confusion due to time zone crossing. See the FIN666 flight status page for this flight to view local times or setup timezone preferences in your user account.

Time Position Orientation Groundspeed Altitude Reporting Facility
EST Latitude Longitude Course Direction KTS MPH feet Rate Location/Type
07:26AM 55.8420 13.1192 49° Northeast  Level Estimated
07:27AM 55.9164 13.2747 50° Northeast  Level Estimated
07:28AM 55.9905 13.4309 50° Northeast  Level Estimated
07:29AM 56.0644 13.5877 50° Northeast  Level Estimated
07:30AM 56.1381 13.7451 50° Northeast  Level Estimated
07:31AM 56.2149 13.9101 50° Northeast  Level Estimated
07:32AM 56.2915 14.0759 50° Northeast  Level Estimated
07:33AM 56.3679 14.2423 50° Northeast  Level Estimated
07:34AM 56.4440 14.4093 50° Northeast  Level Estimated
07:35AM 56.5200 14.5771 51° Northeast  Level Estimated
07:36AM 56.5956 14.7455 51° Northeast  Level Estimated
07:37AM 56.6711 14.9146 51° Northeast  Level Estimated
07:38AM 56.7463 15.0843 51° Northeast  Level Estimated
07:39AM 56.8213 15.2548 51° Northeast  Level Estimated
07:40AM 56.8961 15.4259 51° Northeast  Level Estimated
07:41AM 56.9706 15.5977 51° Northeast  Level Estimated
07:42AM 57.0449 15.7702 52° Northeast  Level Estimated
07:43AM 57.1201 15.9460 52° Northeast  Level Estimated
07:44AM 57.1950 16.1225 52° Northeast  Level Estimated
07:45AM 57.2697 16.2998 52° Northeast  Level Estimated
07:46AM 57.3442 16.4778 52° Northeast  Level Estimated
07:47AM 57.4184 16.6565 52° Northeast  Level Estimated
07:48AM 57.4923 16.8359 52° Northeast  Level Estimated
07:49AM 57.5659 17.0160 53° Northeast  Level Estimated
07:50AM 57.6394 17.1969 53° Northeast  Level Estimated
07:51AM 57.7125 17.3785 53° Northeast  Level Estimated
07:52AM 57.7854 17.5608 53° Northeast  Level Estimated
07:53AM 57.8581 17.7439 53° Northeast  Level Estimated
07:54AM 57.9304 17.9277 53° Northeast  Level Estimated
07:55AM 58.0025 18.1122 54° Northeast  Level Estimated
07:56AM 58.0744 18.2975 54° Northeast  Level Estimated
07:57AM 58.1459 18.4836 54° Northeast  Level Estimated
07:58AM 58.2172 18.6703 54° Northeast  Level Estimated
07:59AM 58.2882 18.8579 54° Northeast  Level Estimated
08:00AM 58.3590 19.0462 54° Northeast  Level Estimated
08:01AM 58.4294 19.2352 54° Northeast  Level Estimated
08:02AM 58.4996 19.4250 55° Northeast  Level Estimated
08:03AM 58.5695 19.6156 55° Northeast  Level Estimated
08:04AM 58.6391 19.8069 55° Northeast  Level Estimated
08:05AM 58.7085 19.9990 55° Northeast  Level Estimated
08:06AM 58.7775 20.1918 55° Northeast  Level Estimated
08:07AM 58.8463 20.3854 55° Northeast  Level Estimated
08:08AM 58.9148 20.5798 56° Northeast  Level Estimated
08:09AM 58.9840 20.7780 56° Northeast  Level Estimated
08:10AM 59.0529 20.9769 56° Northeast  Level Estimated
08:11AM 59.1215 21.1767 56° Northeast  Level Estimated
08:12AM 59.1898 21.3773 56° Northeast  Level Estimated
08:13AM 59.2578 21.5786 56° Northeast  Level Estimated
08:14AM 59.3255 21.7808 57° Northeast  Level Estimated
08:15AM 59.3929 21.9837 57° Northeast  Level Estimated
08:16AM 59.4599 22.1875 57° Northeast  Level Estimated
08:17AM 59.5267 22.3921 57° Northeast  Level Estimated
08:18AM 59.5931 22.5975 57° Northeast  Level Estimated
08:19AM 59.6592 22.8037 58° Northeast  Level Estimated
08:20AM 59.7249 23.0107 58° Northeast  Level Estimated
08:21AM 59.7904 23.2185 58° Northeast  Level Estimated
08:22AM 59.8555 23.4272 58° Northeast  Level Estimated
08:23AM 59.9203 23.6366 58° Northeast  Level Estimated
08:24AM 59.9847 23.8469 58° Northeast  Level Estimated
08:25AM 60.0488 24.0580 59° Northeast  Level Estimated
08:26AM 60.1126 24.2699 59° Northeast  Level Estimated
08:27AM 60.1760 24.4826 59° Northeast  Level Estimated
08:28AM 60.2391 24.6962 59° Northeast  Level Estimated
08:29AM 60.3019 24.9106 59° Northeast  Level Estimated
08:30AM 60.3172 24.9633 60° Northeast  Level Estimated
08:31AM 60.3172 24.9633 37° Northeast  Level Estimated
08:32AM 60.3172 24.9633 37° Northeast  Level Estimated
08:33AM 60.3172 24.9633 37° Northeast  Level Estimated
08:34AM 60.3172 24.9633 37° Northeast  Level Estimated
08:35AM 60.3172 24.9633 37° Northeast  Level Estimated
08:36AM 60.3172 24.9633 37° Northeast  Level Estimated
08:37AM 60.3172 24.9633 37° Northeast  Level Estimated
08:38AM 60.3172 24.9633 37° Northeast  Level Estimated
08:39AM 60.3172 24.9633 37° Northeast  Level Estimated
08:40AM 60.3172 24.9633 37° Northeast  Level Estimated
08:41AM 60.3172 24.9633 37° Northeast  Level Estimated
08:42AM 60.3172 24.9633 37° Northeast  Level Estimated
08:43AM 60.3172 24.9633 37° Northeast  Level Estimated